createdAt,value
2022-12-04T00:01:20.293Z,101611.19
2022-12-04T00:03:47.140Z,101604.00
2022-12-04T00:06:17.085Z,101603.75
2022-12-04T00:08:44.474Z,101600.13
2022-12-04T00:11:12.844Z,101594.44
2022-12-04T00:13:40.029Z,101595.41
2022-12-04T00:16:08.672Z,101593.16
2022-12-04T00:18:36.060Z,101592.22
2022-12-04T00:21:08.405Z,101589.97
2022-12-04T00:23:35.923Z,101583.06
2022-12-04T00:26:16.688Z,101587.66
2022-12-04T00:28:43.990Z,101580.63
2022-12-04T00:31:13.864Z,101577.88
2022-12-04T00:33:41.055Z,101574.78
2022-12-04T00:36:10.373Z,101587.44
2022-12-04T00:38:38.260Z,101572.88
2022-12-04T00:41:05.054Z,101573.25
2022-12-04T00:43:33.197Z,101577.19
2022-12-04T00:45:59.808Z,101577.56
2022-12-04T00:48:26.684Z,101574.81
2022-12-04T00:50:54.173Z,101575.78
2022-12-04T00:53:21.084Z,101576.88
2022-12-04T00:55:47.663Z,101574.63
2022-12-04T00:58:14.183Z,101574.72
2022-12-04T01:00:42.222Z,101575.25
2022-12-04T01:03:09.680Z,101574.75
2022-12-04T01:05:42.300Z,101579.25
2022-12-04T01:08:10.026Z,101580.63
2022-12-04T01:10:39.668Z,101582.91
2022-12-04T01:13:06.255Z,101586.63
2022-12-04T01:15:33.431Z,101573.59
2022-12-04T01:17:59.958Z,101575.66
2022-12-04T01:20:26.409Z,101580.06
2022-12-04T01:22:52.808Z,101575.06
2022-12-04T01:25:19.310Z,101574.91
2022-12-04T01:27:45.757Z,101578.66
2022-12-04T01:30:12.658Z,101579.09
2022-12-04T01:32:39.131Z,101575.94
2022-12-04T01:35:06.224Z,101581.69
2022-12-04T01:37:32.993Z,101580.22
2022-12-04T01:39:59.772Z,101579.78
2022-12-04T01:42:26.813Z,101585.38
2022-12-04T01:45:44.294Z,101578.22
2022-12-04T01:48:24.878Z,101576.25
2022-12-04T01:50:55.553Z,101578.31
2022-12-04T01:53:22.378Z,101576.59
2022-12-04T01:55:49.606Z,101570.59
2022-12-04T01:58:19.366Z,101566.91
2022-12-04T02:00:51.653Z,101569.06
2022-12-04T02:03:18.367Z,101571.09
2022-12-04T02:05:44.863Z,101562.84
2022-12-04T02:08:11.486Z,101569.47
2022-12-04T02:11:08.948Z,101570.69
2022-12-04T02:13:41.421Z,101565.78
2022-12-04T02:16:38.926Z,101565.78
2022-12-04T02:19:05.396Z,101573.34
2022-12-04T02:21:40.571Z,101576.94
2022-12-04T02:24:46.766Z,101577.13
2022-12-04T02:27:48.934Z,101579.50
2022-12-04T02:30:15.678Z,101572.84
2022-12-04T02:33:03.614Z,101571.81
2022-12-04T02:35:55.080Z,101576.69
2022-12-04T02:38:27.710Z,101570.59
2022-12-04T02:41:03.243Z,101575.50
2022-12-04T02:43:38.235Z,101567.16
2022-12-04T02:46:15.019Z,101568.44
2022-12-04T02:48:44.428Z,101559.16
2022-12-04T02:51:14.708Z,101559.59
2022-12-04T02:53:45.785Z,101557.63
2022-12-04T02:56:17.009Z,101560.47
2022-12-04T02:58:52.742Z,101556.09
2022-12-04T03:01:26.825Z,101554.22
2022-12-04T03:04:00.438Z,101553.44
2022-12-04T03:06:31.651Z,101555.91
2022-12-04T03:09:08.263Z,101547.44
2022-12-04T03:11:37.973Z,101554.38
2022-12-04T03:14:17.435Z,101546.81
2022-12-04T03:16:44.959Z,101540.72
2022-12-04T03:19:16.078Z,101540.88
2022-12-04T03:21:49.898Z,101540.47
2022-12-04T03:24:39.108Z,101535.16
2022-12-04T03:27:29.115Z,101531.72
2022-12-04T03:30:04.895Z,101529.06
2022-12-04T03:32:42.552Z,101538.69
2022-12-04T03:35:19.032Z,101532.91
2022-12-04T03:38:11.502Z,101533.78
2022-12-04T03:40:48.726Z,101527.94
2022-12-04T03:43:29.404Z,101539.53
2022-12-04T03:46:09.207Z,101531.72
2022-12-04T03:48:47.449Z,101540.75
2022-12-04T03:51:19.408Z,101544.00
2022-12-04T03:53:54.915Z,101542.25
2022-12-04T03:56:30.306Z,101547.75
2022-12-04T03:59:09.343Z,101553.34
2022-12-04T04:01:42.305Z,101545.69
2022-12-04T04:04:14.023Z,101540.38
2022-12-04T04:06:46.889Z,101538.66
2022-12-04T04:09:19.566Z,101535.47
2022-12-04T04:11:50.737Z,101534.28
2022-12-04T04:14:52.596Z,101536.00
2022-12-04T04:17:44.045Z,101530.59
2022-12-04T04:20:39.424Z,101532.56
2022-12-04T04:23:29.884Z,101533.44
2022-12-04T04:25:59.693Z,101539.44
2022-12-04T04:28:46.506Z,101538.75
2022-12-04T04:31:27.280Z,101537.28
2022-12-04T04:34:07.788Z,101548.63
2022-12-04T04:37:01.472Z,101538.25
2022-12-04T04:39:27.951Z,101542.09
2022-12-04T04:41:59.393Z,101539.28
2022-12-04T04:44:37.995Z,101531.72
2022-12-04T04:47:09.252Z,101544.94
2022-12-04T04:49:39.201Z,101535.00
2022-12-04T04:52:06.218Z,101534.72
2022-12-04T04:54:35.475Z,101533.44
2022-12-04T04:57:02.089Z,101538.75
2022-12-04T04:59:28.648Z,101530.16
2022-12-04T05:01:55.258Z,101536.25
2022-12-04T05:04:21.785Z,101536.69
2022-12-04T05:06:48.977Z,101539.94
2022-12-04T05:09:15.668Z,101529.41
2022-12-04T05:11:42.235Z,101536.53
2022-12-04T05:14:09.743Z,101538.84
2022-12-04T05:16:36.594Z,101533.25
2022-12-04T05:19:21.776Z,101528.09
2022-12-04T05:21:48.249Z,101544.91
2022-12-04T05:24:14.797Z,101543.13
2022-12-04T05:26:41.310Z,101540.53
2022-12-04T05:29:07.887Z,101549.81
2022-12-04T05:31:34.414Z,101548.28
2022-12-04T05:34:00.950Z,101544.00
2022-12-04T05:36:27.416Z,101548.53
2022-12-04T05:38:53.933Z,101548.28
2022-12-04T05:41:20.366Z,101549.38
2022-12-04T05:43:46.824Z,101549.22
2022-12-04T05:46:13.425Z,101548.03
2022-12-04T05:48:39.932Z,101554.28
2022-12-04T05:51:10.788Z,101543.47
2022-12-04T05:53:38.435Z,101540.38
2022-12-04T05:56:06.303Z,101530.69
2022-12-04T05:58:37.808Z,101534.91
2022-12-04T06:01:16.413Z,101536.25
2022-12-04T06:03:43.002Z,101532.38
2022-12-04T06:06:24.023Z,101530.94
2022-12-04T06:08:52.927Z,101537.88
2022-12-04T06:11:27.866Z,101534.63
2022-12-04T06:13:54.445Z,101525.97
2022-12-04T06:16:24.525Z,101532.66
2022-12-04T06:18:53.116Z,101531.56
2022-12-04T06:21:21.905Z,101536.78
2022-12-04T06:23:48.376Z,101531.47
2022-12-04T06:26:15.124Z,101534.13
2022-12-04T06:28:41.630Z,101529.41
2022-12-04T06:31:10.583Z,101520.28
2022-12-04T06:33:38.958Z,101525.81
2022-12-04T06:36:08.583Z,101530.00
2022-12-04T06:38:35.490Z,101531.19
2022-12-04T06:41:10.374Z,101529.25
2022-12-04T06:43:37.520Z,101536.97
2022-12-04T06:46:08.291Z,101531.97
2022-12-04T06:48:35.087Z,101528.97
2022-12-04T06:51:26.270Z,101531.19
2022-12-04T06:53:53.127Z,101537.22
2022-12-04T06:56:22.911Z,101535.44
2022-12-04T06:58:51.388Z,101542.53
2022-12-04T07:01:20.966Z,101542.78
2022-12-04T07:03:51.664Z,101548.13
2022-12-04T07:06:26.819Z,101543.03
2022-12-04T07:09:01.810Z,101552.16
2022-12-04T07:11:29.754Z,101550.53
2022-12-04T07:13:56.691Z,101552.50
2022-12-04T07:16:24.701Z,101548.78
2022-12-04T07:18:53.691Z,101543.16
2022-12-04T07:21:24.043Z,101552.41
2022-12-04T07:23:52.687Z,101543.75
2022-12-04T07:26:20.258Z,101540.38
2022-12-04T07:28:47.322Z,101546.06
2022-12-04T07:31:17.221Z,101551.56
2022-12-04T07:33:44.921Z,101554.88
2022-12-04T07:36:14.791Z,101558.94
2022-12-04T07:38:41.856Z,101553.00
2022-12-04T07:41:11.514Z,101566.31
2022-12-04T07:43:38.296Z,101563.03
2022-12-04T07:46:13.390Z,101557.03
2022-12-04T07:48:40.437Z,101570.50
2022-12-04T07:51:18.389Z,101566.81
2022-12-04T07:53:45.916Z,101563.28
2022-12-04T07:56:13.218Z,101555.28
2022-12-04T07:58:40.355Z,101559.25
2022-12-04T08:01:14.169Z,101553.06
2022-12-04T08:03:47.486Z,101553.09
2022-12-04T08:06:14.901Z,101561.50
2022-12-04T08:08:41.400Z,101559.38
2022-12-04T08:11:10.344Z,101561.34
2022-12-04T08:13:37.016Z,101568.88
2022-12-04T08:16:08.129Z,101564.00
2022-12-04T08:18:34.594Z,101568.00
2022-12-04T08:21:04.922Z,101568.28
2022-12-04T08:23:31.723Z,101570.50
2022-12-04T08:26:00.340Z,101578.22
2022-12-04T08:28:27.274Z,101576.78
2022-12-04T08:30:53.763Z,101581.69
2022-12-04T08:33:20.462Z,101586.81
2022-12-04T08:35:46.955Z,101593.69
2022-12-04T08:38:13.459Z,101582.78
2022-12-04T08:40:39.952Z,101592.84
2022-12-04T08:43:06.445Z,101592.13
2022-12-04T08:45:32.908Z,101593.88
2022-12-04T08:47:59.410Z,101592.66
2022-12-04T08:50:25.963Z,101596.78
2022-12-04T08:52:52.452Z,101592.13
2022-12-04T08:55:19.324Z,101590.94
2022-12-04T08:57:45.728Z,101590.59
2022-12-04T09:00:15.421Z,101592.50
2022-12-04T09:02:42.191Z,101587.69
2022-12-04T09:05:08.794Z,101587.63
2022-12-04T09:07:35.692Z,101585.38
2022-12-04T09:10:02.186Z,101576.81
2022-12-04T09:12:28.736Z,101577.31
2022-12-04T09:14:55.245Z,101574.63
2022-12-04T09:17:21.761Z,101586.75
2022-12-04T09:19:48.277Z,101581.59
2022-12-04T09:22:14.771Z,101582.72
2022-12-04T09:24:41.296Z,101586.31
2022-12-04T09:27:14.306Z,101576.28
2022-12-04T09:29:41.288Z,101578.66
2022-12-04T09:32:07.734Z,101577.31
2022-12-04T09:34:34.227Z,101584.09
2022-12-04T09:37:00.868Z,101576.81
2022-12-04T09:39:27.412Z,101587.09
2022-12-04T09:42:08.230Z,101591.22
2022-12-04T09:44:45.609Z,101582.78
2022-12-04T09:47:39.975Z,101578.84
2022-12-04T09:50:06.794Z,101580.13
2022-12-04T09:52:59.983Z,101587.44
2022-12-04T09:55:45.645Z,101582.03
2022-12-04T09:58:20.507Z,101577.47
2022-12-04T10:00:51.238Z,101580.47
2022-12-04T10:03:20.805Z,101573.28
2022-12-04T10:06:16.705Z,101588.66
2022-12-04T10:08:46.266Z,101580.41
2022-12-04T10:11:16.032Z,101578.06
2022-12-04T10:14:13.501Z,101589.09
2022-12-04T10:17:02.850Z,101578.00
2022-12-04T10:19:37.514Z,101574.72
2022-12-04T10:22:30.286Z,101578.66
2022-12-04T10:25:01.335Z,101578.16
2022-12-04T10:27:44.696Z,101578.66
2022-12-04T10:30:20.506Z,101585.88
2022-12-04T10:32:48.563Z,101587.19
2022-12-04T10:35:24.446Z,101583.06
2022-12-04T10:37:56.884Z,101575.34
2022-12-04T10:40:31.413Z,101579.47
2022-12-04T10:43:11.775Z,101577.91
2022-12-04T10:45:38.250Z,101577.19
2022-12-04T10:48:05.172Z,101574.63
2022-12-04T10:50:31.704Z,101566.56
2022-12-04T10:52:58.139Z,101557.38
2022-12-04T10:55:36.551Z,101563.56
2022-12-04T10:58:03.161Z,101565.72
2022-12-04T11:00:32.272Z,101563.06
2022-12-04T11:03:08.649Z,101565.72
2022-12-04T11:05:40.235Z,101568.47
2022-12-04T11:08:07.770Z,101565.78
2022-12-04T11:10:43.195Z,101569.66
2022-12-04T11:13:12.668Z,101564.09
2022-12-04T11:15:45.391Z,101571.88
2022-12-04T11:18:35.888Z,101565.88
2022-12-04T11:21:07.691Z,101563.66
2022-12-04T11:23:43.295Z,101557.38
2022-12-04T11:26:10.858Z,101549.22
2022-12-04T11:28:42.139Z,101543.56
2022-12-04T11:31:16.414Z,101546.50
2022-12-04T11:33:49.896Z,101537.34
2022-12-04T11:36:24.504Z,101542.44
2022-12-04T11:38:53.787Z,101533.50
2022-12-04T11:41:32.266Z,101527.75
2022-12-04T11:44:00.621Z,101529.97
2022-12-04T11:46:34.048Z,101535.72
2022-12-04T11:49:03.364Z,101523.94
2022-12-04T11:51:51.649Z,101515.72
2022-12-04T11:54:27.278Z,101510.03
2022-12-04T11:57:15.857Z,101516.66
2022-12-04T11:59:53.182Z,101510.25
2022-12-04T12:02:34.140Z,101496.97
2022-12-04T12:05:14.946Z,101498.44
2022-12-04T12:08:04.376Z,101491.63
2022-12-04T12:10:40.086Z,101495.34
2022-12-04T12:13:12.389Z,101488.53
2022-12-04T12:15:45.611Z,101489.31
2022-12-04T12:18:48.982Z,101485.91
2022-12-04T12:21:33.189Z,101487.00
2022-12-04T12:24:19.594Z,101499.38
2022-12-04T12:26:54.837Z,101498.97
2022-12-04T12:29:42.442Z,101486.91
2022-12-04T12:32:23.719Z,101481.13
2022-12-04T12:34:51.055Z,101484.00
2022-12-04T12:37:29.984Z,101476.88
2022-12-04T12:39:56.507Z,101481.72
2022-12-04T12:42:34.446Z,101488.84
2022-12-04T12:45:07.550Z,101480.22
2022-12-04T12:47:41.364Z,101472.06
2022-12-04T12:50:18.368Z,101482.19
2022-12-04T12:52:54.279Z,101486.25
2022-12-04T12:55:25.357Z,101480.63
2022-12-04T12:58:04.353Z,101474.00
2022-12-04T13:00:36.935Z,101476.94
2022-12-04T13:03:42.863Z,101476.53
2022-12-04T13:06:20.762Z,101480.53
2022-12-04T13:09:25.557Z,101482.66
2022-12-04T13:11:58.124Z,101471.13
2022-12-04T13:14:24.709Z,101465.41
2022-12-04T13:16:55.821Z,101461.44
2022-12-04T13:19:31.507Z,101459.16
2022-12-04T13:22:09.838Z,101461.72
2022-12-04T13:25:01.094Z,101456.66
2022-12-04T13:27:52.224Z,101456.75
2022-12-04T13:30:20.574Z,101458.00
2022-12-04T13:33:13.060Z,101462.94
2022-12-04T13:36:17.254Z,101462.84
2022-12-04T13:39:15.786Z,101455.53
2022-12-04T13:41:42.347Z,101456.78
2022-12-04T13:44:22.982Z,101468.88
2022-12-04T13:47:07.661Z,101469.41
2022-12-04T13:49:42.197Z,101475.06
2022-12-04T13:52:40.098Z,101473.88
2022-12-04T13:55:25.457Z,101471.47
2022-12-04T13:58:00.579Z,101474.03
2022-12-04T14:00:35.213Z,101477.75
2022-12-04T14:03:20.955Z,101476.88
2022-12-04T14:05:48.370Z,101467.53
2022-12-04T14:08:20.732Z,101475.97
2022-12-04T14:11:11.935Z,101475.13
2022-12-04T14:13:51.717Z,101475.22
2022-12-04T14:16:22.782Z,101477.47
2022-12-04T14:18:53.849Z,101471.56
2022-12-04T14:21:20.697Z,101477.38
2022-12-04T14:23:47.712Z,101480.34
2022-12-04T14:26:37.411Z,101474.81
2022-12-04T14:29:30.048Z,101475.13
2022-12-04T14:32:00.457Z,101471.69
2022-12-04T14:34:31.805Z,101479.59
2022-12-04T14:36:59.759Z,101485.31
2022-12-04T14:39:45.414Z,101475.38
2022-12-04T14:42:17.895Z,101478.44
2022-12-04T14:44:46.529Z,101472.66
2022-12-04T14:47:37.568Z,101476.38
2022-12-04T14:50:22.474Z,101477.97
2022-12-04T14:52:48.838Z,101492.72
2022-12-04T14:55:25.852Z,101484.00
2022-12-04T14:58:31.088Z,101477.16
2022-12-04T15:01:03.939Z,101479.38
2022-12-04T15:03:35.306Z,101474.66
2022-12-04T15:06:05.606Z,101475.66
2022-12-04T15:08:32.836Z,101474.50
2022-12-04T15:11:17.775Z,101466.56
2022-12-04T15:13:44.306Z,101463.28
2022-12-04T15:16:17.068Z,101472.25
2022-12-04T15:19:00.447Z,101470.63
2022-12-04T15:21:41.013Z,101472.06
2022-12-04T15:24:20.446Z,101468.09
2022-12-04T15:26:48.811Z,101479.53
2022-12-04T15:29:21.448Z,101481.16
2022-12-04T15:31:56.501Z,101479.09
2022-12-04T15:34:32.578Z,101489.78
2022-12-04T15:37:09.425Z,101488.50
2022-12-04T15:39:37.939Z,101494.22
2022-12-04T15:42:23.721Z,101496.97
2022-12-04T15:44:52.378Z,101496.69
2022-12-04T15:47:24.816Z,101499.31
2022-12-04T15:49:51.600Z,101498.00
2022-12-04T15:52:21.273Z,101507.03
2022-12-04T15:54:59.358Z,101500.38
2022-12-04T15:57:40.981Z,101504.25
2022-12-04T16:00:22.235Z,101502.28
2022-12-04T16:02:48.935Z,101517.41
2022-12-04T16:05:21.512Z,101513.56
2022-12-04T16:07:56.959Z,101517.09
2022-12-04T16:10:33.509Z,101515.28
2022-12-04T16:13:05.384Z,101511.72
2022-12-04T16:15:38.512Z,101509.56
2022-12-04T16:18:06.307Z,101509.22
2022-12-04T16:20:38.409Z,101508.47
2022-12-04T16:23:05.445Z,101507.97
2022-12-04T16:25:32.383Z,101504.25
2022-12-04T16:27:59.512Z,101507.66
2022-12-04T16:30:31.635Z,101504.53
2022-12-04T16:32:58.570Z,101503.06
2022-12-04T16:35:25.032Z,101511.22
2022-12-04T16:37:51.581Z,101516.38
2022-12-04T16:40:18.168Z,101521.97
2022-12-04T16:42:44.694Z,101512.94
2022-12-04T16:45:14.048Z,101511.84
2022-12-04T16:47:40.485Z,101519.91
2022-12-04T16:50:07.917Z,101527.28
2022-12-04T16:52:34.412Z,101521.97
2022-12-04T16:55:04.926Z,101529.19
2022-12-04T16:57:31.972Z,101522.38
2022-12-04T16:59:58.816Z,101516.75
2022-12-04T17:02:26.890Z,101507.03
2022-12-04T17:04:57.484Z,101507.03
2022-12-04T17:07:24.675Z,101517.69
2022-12-04T17:09:51.131Z,101518.97
2022-12-04T17:12:17.574Z,101513.63
2022-12-04T17:14:44.090Z,101511.38
2022-12-04T17:17:10.609Z,101510.28
2022-12-04T17:19:37.175Z,101519.84
2022-12-04T17:22:03.661Z,101518.00
2022-12-04T17:24:30.103Z,101502.13
2022-12-04T17:26:58.069Z,101508.38
2022-12-04T17:29:24.592Z,101510.78
2022-12-04T17:31:51.128Z,101510.78
2022-12-04T17:34:17.635Z,101518.31
2022-12-04T17:36:44.108Z,101518.50
2022-12-04T17:39:11.786Z,101530.47
2022-12-04T17:41:38.232Z,101524.59
2022-12-04T17:44:04.791Z,101536.03
2022-12-04T17:46:31.401Z,101524.78
2022-12-04T17:49:01.473Z,101529.91
2022-12-04T17:51:30.472Z,101530.69
2022-12-04T17:53:56.953Z,101541.19
2022-12-04T17:56:24.138Z,101545.66
2022-12-04T17:58:51.555Z,101544.81
2022-12-04T18:01:21.496Z,101548.72
2022-12-04T18:03:57.169Z,101548.31
2022-12-04T18:06:29.442Z,101541.72
2022-12-04T18:08:56.651Z,101557.13
2022-12-04T18:11:25.769Z,101557.31
2022-12-04T18:14:10.136Z,101567.63
2022-12-04T18:16:41.980Z,101561.97
2022-12-04T18:19:08.652Z,101556.66
2022-12-04T18:21:35.089Z,101563.59
2022-12-04T18:24:03.893Z,101545.38
2022-12-04T18:26:39.470Z,101559.53
2022-12-04T18:29:06.760Z,101540.69
2022-12-04T18:31:33.775Z,101538.72
2022-12-04T18:34:00.713Z,101540.47
2022-12-04T18:36:29.832Z,101532.13
2022-12-04T18:38:59.606Z,101530.44
2022-12-04T18:41:27.420Z,101535.75
2022-12-04T18:43:54.254Z,101536.41
2022-12-04T18:46:21.668Z,101542.13
2022-12-04T18:48:49.774Z,101537.97
2022-12-04T18:51:21.310Z,101540.63
2022-12-04T18:53:48.168Z,101532.47
2022-12-04T18:56:14.817Z,101532.25
2022-12-04T18:58:41.768Z,101544.91
2022-12-04T19:01:13.632Z,101549.88
2022-12-04T19:03:40.933Z,101542.50
2022-12-04T19:06:08.476Z,101533.75
2022-12-04T19:08:41.462Z,101530.09
2022-12-04T19:11:15.235Z,101533.97
2022-12-04T19:13:42.573Z,101537.09
2022-12-04T19:16:14.485Z,101532.53
2022-12-04T19:18:42.370Z,101533.84
2022-12-04T19:21:09.244Z,101537.34
2022-12-04T19:23:35.746Z,101538.03
2022-12-04T19:26:02.322Z,101535.72
2022-12-04T19:28:28.947Z,101538.97
2022-12-04T19:30:56.371Z,101541.34
2022-12-04T19:33:24.062Z,101537.88
2022-12-04T19:36:02.001Z,101537.13
2022-12-04T19:38:29.953Z,101534.22
2022-12-04T19:41:11.914Z,101530.69
2022-12-04T19:43:40.338Z,101530.00
2022-12-04T19:46:08.110Z,101530.50
2022-12-04T19:48:40.741Z,101534.22
2022-12-04T19:51:15.698Z,101540.66
2022-12-04T19:53:42.509Z,101538.72
2022-12-04T19:56:12.420Z,101541.16
2022-12-04T19:58:39.341Z,101541.53
2022-12-04T20:01:08.104Z,101548.00
2022-12-04T20:03:34.999Z,101547.59
2022-12-04T20:06:21.707Z,101542.03
2022-12-04T20:08:53.781Z,101535.91
2022-12-04T20:11:20.355Z,101541.41
2022-12-04T20:13:48.780Z,101544.06
2022-12-04T20:16:18.041Z,101530.31
2022-12-04T20:18:45.362Z,101530.50
2022-12-04T20:21:12.872Z,101540.13
2022-12-04T20:23:49.464Z,101537.81
2022-12-04T20:26:21.978Z,101529.75
2022-12-04T20:28:48.675Z,101532.00
2022-12-04T20:31:16.497Z,101527.97
2022-12-04T20:33:44.593Z,101527.25
2022-12-04T20:36:12.298Z,101516.66
2022-12-04T20:38:39.873Z,101525.25
2022-12-04T20:41:13.756Z,101524.59
2022-12-04T20:43:40.167Z,101520.03
2022-12-04T20:46:19.601Z,101521.66
2022-12-04T20:48:50.079Z,101526.69
2022-12-04T20:51:18.568Z,101530.56
2022-12-04T20:53:46.551Z,101534.38
2022-12-04T20:56:17.165Z,101527.25
2022-12-04T20:58:43.655Z,101521.69
2022-12-04T21:01:15.796Z,101531.84
2022-12-04T21:03:42.753Z,101531.66
2022-12-04T21:06:14.377Z,101535.25
2022-12-04T21:08:53.572Z,101528.63
2022-12-04T21:11:31.879Z,101538.69
2022-12-04T21:14:18.944Z,101531.56
2022-12-04T21:16:45.809Z,101537.09
2022-12-04T21:19:14.965Z,101529.09
2022-12-04T21:21:41.762Z,101538.25
2022-12-04T21:24:10.731Z,101534.25
2022-12-04T21:26:37.442Z,101527.38
2022-12-04T21:29:05.524Z,101529.28
2022-12-04T21:31:32.130Z,101539.09
2022-12-04T21:34:00.353Z,101538.31
2022-12-04T21:36:27.891Z,101532.81
2022-12-04T21:38:55.220Z,101529.78
2022-12-04T21:41:40.721Z,101534.44
2022-12-04T21:44:12.381Z,101536.41
2022-12-04T21:46:39.344Z,101530.03
2022-12-04T21:49:06.438Z,101536.22
2022-12-04T21:51:56.398Z,101537.50
2022-12-04T21:54:19.368Z,101538.91
2022-12-04T21:56:46.085Z,101528.91
2022-12-04T21:59:12.819Z,101530.44
2022-12-04T22:01:39.430Z,101530.63
2022-12-04T22:04:06.154Z,101524.72
2022-12-04T22:06:36.146Z,101524.53
2022-12-04T22:09:06.187Z,101527.00
2022-12-04T22:11:32.711Z,101522.16
2022-12-04T22:13:59.225Z,101529.00
2022-12-04T22:16:30.300Z,101535.13
2022-12-04T22:18:58.138Z,101529.50
2022-12-04T22:21:25.271Z,101531.97
2022-12-04T22:23:59.991Z,101526.72
2022-12-04T22:26:27.801Z,101530.06
2022-12-04T22:28:54.848Z,101530.06
2022-12-04T22:31:24.010Z,101531.78
2022-12-04T22:33:53.219Z,101530.19
2022-12-04T22:36:22.507Z,101533.66
2022-12-04T22:41:35.856Z,101538.94
2022-12-04T22:44:02.369Z,101530.53
2022-12-04T22:46:28.996Z,101526.66
2022-12-04T22:48:55.555Z,101529.97
2022-12-04T22:51:22.714Z,101536.91
2022-12-04T22:53:54.417Z,101534.34
2022-12-04T22:56:29.688Z,101532.53
2022-12-04T22:58:57.754Z,101535.88
2022-12-04T23:01:26.925Z,101531.69
2022-12-04T23:03:54.678Z,101531.31
2022-12-04T23:06:24.446Z,101529.59
2022-12-04T23:09:00.052Z,101528.06
2022-12-04T23:11:27.265Z,101533.88
2022-12-04T23:13:56.186Z,101523.78
2022-12-04T23:16:24.358Z,101523.69
2022-12-04T23:18:51.331Z,101531.59
2022-12-04T23:21:20.167Z,101520.25
2022-12-04T23:23:47.695Z,101526.44
2022-12-04T23:26:20.707Z,101526.94
2022-12-04T23:28:47.161Z,101516.44
2022-12-04T23:31:14.789Z,101516.53
2022-12-04T23:33:41.898Z,101525.56
2022-12-04T23:36:10.832Z,101521.88
2022-12-04T23:38:38.970Z,101520.06
2022-12-04T23:41:08.681Z,101520.47
2022-12-04T23:43:35.264Z,101522.16
2022-12-04T23:46:05.894Z,101524.44
2022-12-04T23:48:37.586Z,101526.56
2022-12-04T23:51:04.054Z,101518.38
2022-12-04T23:53:30.568Z,101517.50
2022-12-04T23:56:08.341Z,101519.19
2022-12-04T23:58:35.950Z,101529.09
